This is the latest recevied weather packets stored in our database for station/object N4MGC. If no packets are shown the sender has not sent any weather packets the latest 1 day(s).
| Time | Temp. | Humidity | Pressure | Rain* | Wind** | Luminosity | Snow |
|---|---|---|---|---|---|---|---|
| 1778099494 | 26.11° C | 83% | 1011 hPa | 0 mm | - | 229 W/m² | - |
| 1778097978 | 25.56° C | 84% | 1011.3 hPa | 0 mm | - | 157 W/m² | - |
| 1778097675 | 26.11° C | 85% | 1011.4 hPa | 0 mm | - | 137 W/m² | - |
| 1778097068 | 25.56° C | 83% | 1011.2 hPa | 0 mm | - | 248 W/m² | - |
| 1778094946 | 25° C | 87% | 1012.5 hPa | 0 mm | - | 146 W/m² | - |
| 1778092825 | 25.56° C | 83% | 1012.5 hPa | 0 mm | - | 354 W/m² | - |
| 1778090703 | 24.44° C | 85% | 1012.5 hPa | 0 mm | - | 252 W/m² | - |
| 1778090095 | 25° C | 86% | 1012.7 hPa | 0 mm | - | 81 W/m² | - |
| 1778089181 | 25° C | 83% | 1012.7 hPa | 0 mm | - | 138 W/m² | - |
| 1778087364 | 25° C | 82% | 1013.1 hPa | 0 mm | - | 181 W/m² | - |
| 1778085230 | 25° C | 81% | 1012.8 hPa | 0 mm | - | 240 W/m² | - |
| 1778084321 | 25° C | 82% | 1012.9 hPa | 0 mm | - | 399 W/m² | - |
| 1778083710 | 25.56° C | 82% | 1013 hPa | 0 mm | - | 247 W/m² | - |
| 1778083406 | 25° C | 83% | 1013 hPa | 0 mm | - | 233 W/m² | - |
| 1778083105 | 24.44° C | 82% | 1012.9 hPa | 0 mm | - | 311 W/m² | - |
| 1778082801 | 24.44° C | 84% | 1013.1 hPa | 0 mm | - | 264 W/m² | - |
| 1778080463 | 22.78° C | 86% | 1013.2 hPa | 0 mm | - | 181 W/m² | - |
| 1778080161 | 22.78° C | 86% | 1013.2 hPa | 0 mm | - | 105 W/m² | - |
| 1778078039 | 22.22° C | 87% | 1013.4 hPa | 0 mm | - | 124 W/m² | - |
| 1778077435 | 22.22° C | 88% | 1013.3 hPa | 0 mm | - | 101 W/m² | - |
| 1778077133 | 22.22° C | 88% | 1013.5 hPa | 0 mm | - | 134 W/m² | - |
| 1778075619 | 21.67° C | 89% | 1013.3 hPa | 0 mm | - | 87 W/m² | - |
| 1778072587 | 20.56° C | 92% | 1013.4 hPa | 0 mm | - | 19 W/m² | - |
| 1778071983 | 20.56° C | 93% | 1013.4 hPa | 0 mm | - | 21 W/m² | - |
| 1778071378 | 20.56° C | 93% | 1013.2 hPa | 0 mm | - | 14 W/m² | - |
* Rain latest hour (hover to see other rain measurements)
** Current wind speed in m/s (hover to see current wind gust speed)